createdAt,value
2022-08-31T00:00:18.563Z,22.64
2022-08-31T00:02:47.464Z,22.62
2022-08-31T00:05:15.323Z,22.70
2022-08-31T00:07:42.737Z,22.80
2022-08-31T00:10:13.226Z,22.81
2022-08-31T00:12:42.478Z,22.84
2022-08-31T00:15:12.668Z,22.82
2022-08-31T00:17:40.729Z,22.71
2022-08-31T00:20:32.721Z,22.74
2022-08-31T00:22:59.356Z,22.68
2022-08-31T00:25:26.495Z,22.59
2022-08-31T00:27:53.523Z,22.51
2022-08-31T00:30:20.780Z,22.47
2022-08-31T00:32:47.956Z,22.47
2022-08-31T00:35:17.051Z,22.49
2022-08-31T00:37:44.091Z,22.47
2022-08-31T00:40:12.234Z,22.46
2022-08-31T00:42:39.632Z,22.34
2022-08-31T00:45:08.642Z,22.33
2022-08-31T00:47:36.016Z,22.28
2022-08-31T00:50:08.521Z,22.30
2022-08-31T00:52:43.067Z,22.35
2022-08-31T00:55:16.733Z,22.38
2022-08-31T00:57:49.462Z,22.43
2022-08-31T01:00:22.681Z,22.46
2022-08-31T01:02:49.985Z,22.46
2022-08-31T01:05:18.278Z,22.50
2022-08-31T01:07:49.784Z,22.41
2022-08-31T01:10:20.978Z,22.38
2022-08-31T01:12:54.139Z,22.32
2022-08-31T01:15:22.933Z,22.26
2022-08-31T01:17:54.611Z,22.21
2022-08-31T01:20:32.251Z,22.19
2022-08-31T01:23:09.926Z,22.15
2022-08-31T01:25:41.438Z,22.16
2022-08-31T01:28:10.341Z,22.13
2022-08-31T01:30:40.424Z,22.03
2022-08-31T01:33:10.653Z,22.04
2022-08-31T01:35:42.887Z,22.00
2022-08-31T01:38:11.540Z,21.94
2022-08-31T01:40:49.209Z,21.94
2022-08-31T01:43:16.621Z,21.92
2022-08-31T01:45:43.848Z,21.91
2022-08-31T01:48:12.678Z,21.88
2022-08-31T01:50:40.237Z,21.89
2022-08-31T01:53:07.263Z,21.82
2022-08-31T01:55:35.937Z,21.77
2022-08-31T01:58:04.367Z,21.71
2022-08-31T02:00:35.075Z,21.60
2022-08-31T02:03:05.187Z,21.57
2022-08-31T02:05:32.097Z,21.55
2022-08-31T02:08:00.302Z,21.53
2022-08-31T02:10:28.921Z,21.44
2022-08-31T02:17:14.813Z,21.27
2022-08-31T02:19:42.782Z,21.25
2022-08-31T02:22:10.048Z,21.28
2022-08-31T02:24:37.305Z,21.26
2022-08-31T02:27:05.299Z,21.18
2022-08-31T02:29:35.435Z,21.26
2022-08-31T02:32:03.677Z,21.19
2022-08-31T02:34:30.621Z,21.05
2022-08-31T02:36:57.816Z,21.04
2022-08-31T02:39:25.251Z,21.03
2022-08-31T02:41:52.704Z,21.04
2022-08-31T02:44:19.843Z,21.07
2022-08-31T02:46:49.027Z,21.03
2022-08-31T02:49:35.921Z,21.10
2022-08-31T02:52:04.415Z,21.05
2022-08-31T02:54:31.946Z,21.00
2022-08-31T02:56:59.473Z,21.09
2022-08-31T02:59:26.989Z,21.10
2022-08-31T03:01:55.899Z,20.98
2022-08-31T03:04:23.614Z,21.08
2022-08-31T03:06:50.722Z,21.02
2022-08-31T03:09:18.859Z,21.05
2022-08-31T03:11:45.941Z,21.10
2022-08-31T03:14:13.892Z,21.01
2022-08-31T03:16:42.364Z,21.03
2022-08-31T03:19:11.052Z,21.01
2022-08-31T03:21:38.153Z,21.01
2022-08-31T03:24:06.131Z,20.99
2022-08-31T03:26:33.429Z,20.95
2022-08-31T03:29:03.198Z,20.87
2022-08-31T03:31:48.849Z,20.86
2022-08-31T03:34:17.618Z,20.96
2022-08-31T03:36:44.586Z,20.89
2022-08-31T03:39:12.533Z,21.00
2022-08-31T03:41:40.431Z,21.00
2022-08-31T03:44:08.255Z,20.90
2022-08-31T03:46:35.764Z,20.83
2022-08-31T03:49:03.989Z,20.91
2022-08-31T03:51:34.472Z,20.85
2022-08-31T03:54:02.310Z,20.81
2022-08-31T03:56:29.258Z,20.83
2022-08-31T03:58:56.555Z,20.87
2022-08-31T04:01:42.637Z,20.89
2022-08-31T04:04:28.784Z,20.90
2022-08-31T04:11:44.966Z,20.77
2022-08-31T04:14:31.310Z,20.88
2022-08-31T04:17:17.325Z,20.80
2022-08-31T04:19:48.351Z,20.75
2022-08-31T04:22:29.852Z,20.77
2022-08-31T04:25:21.521Z,20.67
2022-08-31T04:28:14.801Z,20.66
2022-08-31T04:31:34.700Z,20.61
2022-08-31T04:47:34.631Z,20.47
2022-08-31T04:50:01.666Z,20.51
2022-08-31T04:52:28.993Z,20.55
2022-08-31T04:54:57.449Z,20.56
2022-08-31T04:57:24.587Z,20.56
2022-08-31T04:59:51.644Z,20.57
2022-08-31T05:03:01.927Z,20.51
2022-08-31T05:05:29.583Z,20.48
2022-08-31T05:07:56.600Z,20.59
2022-08-31T05:10:23.645Z,20.62
2022-08-31T05:12:50.941Z,20.61
2022-08-31T05:15:18.606Z,20.67
2022-08-31T05:17:45.886Z,20.62
2022-08-31T05:20:15.805Z,20.55
2022-08-31T05:22:47.309Z,20.50
2022-08-31T05:25:14.624Z,20.59
2022-08-31T05:27:42.315Z,20.57
2022-08-31T05:30:11.696Z,20.50
2022-08-31T05:32:47.361Z,20.48
2022-08-31T05:35:22.411Z,20.42
2022-08-31T05:37:51.160Z,20.55
2022-08-31T05:40:19.538Z,20.45
2022-08-31T05:42:47.692Z,20.42
2022-08-31T05:45:15.019Z,20.45
2022-08-31T05:47:42.630Z,20.47
2022-08-31T05:50:10.330Z,20.49
2022-08-31T05:52:42.023Z,20.56
2022-08-31T05:55:09.929Z,20.51
2022-08-31T05:57:36.796Z,20.49
2022-08-31T06:00:06.620Z,20.45
2022-08-31T06:02:39.867Z,20.45
2022-08-31T06:05:09.120Z,20.43
2022-08-31T06:07:36.256Z,20.43
2022-08-31T06:10:10.398Z,20.47
2022-08-31T06:12:38.697Z,20.49
2022-08-31T06:15:07.559Z,20.53
2022-08-31T06:17:34.929Z,20.54
2022-08-31T06:20:03.571Z,20.46
2022-08-31T06:22:31.514Z,20.43
2022-08-31T06:24:58.661Z,20.47
2022-08-31T06:27:27.273Z,20.43
2022-08-31T06:34:20.350Z,20.59
2022-08-31T06:37:18.449Z,20.64
2022-08-31T06:40:14.098Z,20.59
2022-08-31T06:43:02.818Z,20.51
2022-08-31T06:45:48.465Z,20.50
2022-08-31T06:48:35.476Z,20.53
2022-08-31T06:51:03.793Z,20.60
2022-08-31T06:53:30.962Z,20.47
2022-08-31T06:56:35.130Z,20.58
2022-08-31T06:59:18.840Z,20.65
2022-08-31T07:02:06.988Z,20.64
2022-08-31T07:04:38.572Z,20.66
2022-08-31T07:07:08.704Z,20.74
2022-08-31T07:09:35.854Z,20.72
2022-08-31T07:12:05.405Z,20.75
2022-08-31T07:14:34.243Z,20.85
2022-08-31T07:17:02.088Z,20.97
2022-08-31T07:19:31.015Z,21.06
2022-08-31T07:22:01.581Z,21.10
2022-08-31T07:24:32.825Z,21.18
2022-08-31T07:27:03.088Z,21.18
2022-08-31T07:29:40.879Z,21.21
2022-08-31T07:32:14.809Z,21.27
2022-08-31T07:34:43.686Z,21.13
2022-08-31T07:37:36.598Z,21.17
2022-08-31T07:40:07.918Z,21.20
2022-08-31T07:42:39.207Z,21.27
2022-08-31T07:45:13.797Z,21.27
2022-08-31T07:47:41.288Z,20.88
2022-08-31T07:50:09.442Z,20.89
2022-08-31T07:52:47.577Z,20.95
2022-08-31T07:55:37.632Z,21.09
2022-08-31T07:58:08.862Z,21.06
2022-08-31T08:00:37.592Z,21.17
2022-08-31T08:03:04.727Z,21.29
2022-08-31T08:05:35.464Z,21.31
2022-08-31T08:08:39.779Z,21.25
2022-08-31T08:11:17.479Z,20.80
2022-08-31T08:14:08.610Z,20.66
2022-08-31T08:16:52.186Z,20.82
2022-08-31T08:19:35.398Z,20.95
2022-08-31T08:22:04.193Z,21.02
2022-08-31T08:24:42.197Z,20.99
2022-08-31T08:27:35.545Z,20.96
2022-08-31T08:30:25.786Z,20.89
2022-08-31T08:32:54.237Z,20.90
2022-08-31T08:35:21.483Z,21.00
2022-08-31T08:37:59.312Z,21.14
2022-08-31T08:40:36.638Z,21.20
2022-08-31T08:43:04.998Z,21.29
2022-08-31T08:45:33.785Z,21.31
2022-08-31T08:48:04.587Z,21.35
2022-08-31T08:50:32.932Z,21.36
2022-08-31T08:53:02.952Z,21.40
2022-08-31T08:55:36.648Z,21.31
2022-08-31T08:58:06.646Z,21.26
2022-08-31T09:00:38.030Z,21.34
2022-08-31T09:03:23.902Z,21.39
2022-08-31T09:06:16.078Z,21.44
2022-08-31T09:09:29.926Z,21.54
2022-08-31T09:12:21.901Z,21.59
2022-08-31T09:15:50.917Z,21.68
2022-08-31T09:18:42.571Z,21.59
2022-08-31T09:21:19.576Z,21.49
2022-08-31T09:23:54.892Z,21.55
2022-08-31T09:26:23.042Z,21.52
2022-08-31T09:29:08.371Z,21.53
2022-08-31T09:31:39.821Z,21.59
2022-08-31T09:34:24.573Z,21.65
2022-08-31T09:36:51.818Z,21.82
2022-08-31T09:39:32.943Z,21.79
2022-08-31T09:42:17.623Z,21.67
2022-08-31T09:44:51.034Z,21.14
2022-08-31T09:47:46.049Z,21.49
2022-08-31T09:50:30.182Z,21.78
2022-08-31T09:53:19.121Z,22.07
2022-08-31T09:55:46.812Z,22.21
2022-08-31T09:58:14.597Z,22.29
2022-08-31T10:00:46.456Z,22.28
2022-08-31T10:03:21.373Z,22.49
2022-08-31T10:05:52.023Z,22.59
2022-08-31T10:08:38.701Z,22.71
2022-08-31T10:11:13.367Z,22.85
2022-08-31T10:13:48.869Z,22.98
2022-08-31T10:16:27.768Z,23.00
2022-08-31T10:19:04.383Z,22.96
2022-08-31T10:22:04.244Z,22.95
2022-08-31T10:24:40.494Z,22.96
2022-08-31T10:27:16.407Z,22.83
2022-08-31T10:29:54.593Z,22.68
2022-08-31T10:32:34.306Z,22.68
2022-08-31T10:35:12.305Z,22.73
2022-08-31T10:42:37.738Z,22.92
2022-08-31T10:45:18.558Z,22.89
2022-08-31T10:47:50.962Z,22.94
2022-08-31T10:50:43.429Z,22.90
2022-08-31T10:53:43.977Z,22.93
2022-08-31T10:56:24.113Z,22.94
2022-08-31T10:59:16.785Z,22.75
2022-08-31T11:02:38.385Z,22.18
2022-08-31T11:05:48.653Z,22.68
2022-08-31T11:09:46.274Z,22.47
2022-08-31T11:16:44.243Z,22.97
2022-08-31T11:20:09.802Z,23.13
2022-08-31T11:23:15.545Z,23.32
2022-08-31T11:26:26.910Z,23.60
2022-08-31T11:29:01.554Z,23.87
2022-08-31T11:31:34.219Z,24.04
2022-08-31T11:34:16.708Z,24.19
2022-08-31T11:36:55.034Z,24.42
2022-08-31T11:39:41.230Z,24.59
2022-08-31T11:42:56.914Z,24.75
2022-08-31T11:45:29.208Z,23.95
2022-08-31T11:47:57.385Z,23.66
2022-08-31T11:51:05.371Z,23.51
2022-08-31T11:53:44.623Z,23.62
2022-08-31T11:56:12.128Z,23.80
2022-08-31T11:58:40.975Z,24.05
2022-08-31T12:01:42.093Z,23.92
2022-08-31T12:05:01.954Z,23.98
2022-08-31T12:07:38.433Z,23.99
2022-08-31T12:10:33.303Z,23.82
2022-08-31T12:13:32.974Z,23.95
2022-08-31T12:16:25.984Z,24.13
2022-08-31T12:19:31.286Z,24.35
2022-08-31T12:22:26.538Z,24.55
2022-08-31T12:25:13.589Z,24.71
2022-08-31T12:27:59.725Z,24.93
2022-08-31T12:30:33.361Z,25.29
2022-08-31T12:33:13.567Z,25.60
2022-08-31T12:35:45.099Z,25.47
2022-08-31T12:38:22.749Z,25.40
2022-08-31T12:40:53.051Z,25.61
2022-08-31T12:43:27.358Z,25.84
2022-08-31T12:46:27.264Z,25.79
2022-08-31T12:49:23.408Z,25.92
2022-08-31T12:52:05.377Z,25.30
2022-08-31T12:55:13.676Z,25.78
2022-08-31T12:57:59.891Z,26.04
2022-08-31T13:00:33.671Z,25.92
2022-08-31T13:03:21.060Z,25.99
2022-08-31T13:06:05.599Z,26.13
2022-08-31T13:08:45.409Z,26.17
2022-08-31T13:16:03.865Z,26.16
2022-08-31T13:18:31.509Z,25.99
2022-08-31T13:21:02.235Z,26.21
2022-08-31T13:23:32.509Z,26.23
2022-08-31T13:26:01.540Z,26.27
2022-08-31T13:28:29.749Z,25.97
2022-08-31T13:31:03.581Z,25.89
2022-08-31T13:33:35.025Z,25.32
2022-08-31T13:36:08.547Z,25.15
2022-08-31T13:38:51.994Z,25.59
2022-08-31T13:41:28.835Z,26.03
2022-08-31T13:44:00.492Z,26.17
2022-08-31T13:46:42.837Z,26.40
2022-08-31T13:49:26.657Z,26.65
2022-08-31T13:51:53.696Z,26.84
2022-08-31T13:54:30.091Z,27.02
2022-08-31T13:57:17.603Z,27.10
2022-08-31T13:59:44.502Z,26.77
2022-08-31T14:02:37.875Z,26.80
2022-08-31T14:05:17.554Z,26.80
2022-08-31T14:08:18.915Z,26.61
2022-08-31T14:11:13.744Z,26.62
2022-08-31T14:14:25.480Z,26.31
2022-08-31T14:16:59.009Z,25.98
2022-08-31T14:19:33.703Z,26.06
2022-08-31T14:26:56.505Z,25.67
2022-08-31T14:29:36.234Z,25.64
2022-08-31T14:32:15.307Z,25.62
2022-08-31T14:35:39.549Z,25.67
2022-08-31T14:38:10.480Z,25.74
2022-08-31T14:40:38.041Z,25.77
2022-08-31T14:43:04.917Z,25.60
2022-08-31T14:45:32.484Z,25.60
2022-08-31T14:47:59.285Z,25.59
2022-08-31T14:51:15.516Z,25.75
2022-08-31T14:53:49.095Z,25.65
2022-08-31T14:56:16.270Z,25.47
2022-08-31T14:58:45.901Z,25.30
2022-08-31T15:01:12.734Z,25.44
2022-08-31T15:03:39.971Z,25.39
2022-08-31T15:06:08.337Z,25.38
2022-08-31T15:08:38.539Z,25.58
2022-08-31T15:11:07.167Z,25.60
2022-08-31T15:13:42.348Z,25.68
2022-08-31T15:16:11.437Z,25.62
2022-08-31T15:18:39.589Z,25.66
2022-08-31T15:21:06.655Z,25.69
2022-08-31T15:23:39.773Z,25.60
2022-08-31T15:26:11.494Z,25.74
2022-08-31T15:28:41.479Z,25.69
2022-08-31T15:31:11.880Z,25.73
2022-08-31T15:37:55.639Z,25.34
2022-08-31T15:40:29.292Z,25.36
2022-08-31T15:43:12.178Z,25.05
2022-08-31T15:45:39.319Z,25.00
2022-08-31T15:48:06.422Z,24.98
2022-08-31T15:50:36.457Z,24.99
2022-08-31T15:53:09.611Z,24.94
2022-08-31T15:55:39.939Z,24.94
2022-08-31T15:58:06.986Z,24.99
2022-08-31T16:05:37.259Z,25.08
2022-08-31T16:21:50.950Z,24.88
2022-08-31T16:24:22.954Z,24.76
2022-08-31T16:26:52.402Z,24.71
2022-08-31T16:29:23.791Z,24.70
2022-08-31T16:31:51.210Z,24.67
2022-08-31T16:34:19.776Z,24.64
2022-08-31T16:36:50.852Z,24.50
2022-08-31T16:39:21.657Z,24.38
2022-08-31T16:41:51.286Z,24.32
2022-08-31T16:44:20.349Z,24.20
2022-08-31T16:46:49.214Z,24.07
2022-08-31T16:55:47.930Z,24.02
2022-08-31T16:58:25.088Z,23.96
2022-08-31T17:01:02.613Z,23.99
2022-08-31T17:03:32.675Z,23.93
2022-08-31T17:05:59.920Z,23.88
2022-08-31T17:08:28.441Z,23.93
2022-08-31T17:10:57.495Z,23.91
2022-08-31T17:13:26.607Z,23.84
2022-08-31T17:16:31.306Z,23.80
2022-08-31T17:19:38.762Z,23.71
2022-08-31T17:27:09.437Z,23.71
2022-08-31T17:29:43.889Z,23.72
2022-08-31T17:32:15.087Z,23.73
2022-08-31T17:34:42.758Z,23.70
2022-08-31T17:37:14.807Z,23.66
2022-08-31T17:39:44.740Z,23.60
2022-08-31T17:42:19.735Z,23.57
2022-08-31T17:44:47.851Z,23.51
2022-08-31T17:47:15.756Z,23.47
2022-08-31T17:49:46.651Z,23.42
2022-08-31T17:52:22.402Z,23.38
2022-08-31T17:54:52.968Z,23.31
2022-08-31T17:57:23.222Z,23.19
2022-08-31T17:59:50.714Z,23.17
2022-08-31T18:02:21.814Z,23.09
2022-08-31T18:04:49.091Z,23.03
2022-08-31T18:09:45.655Z,22.95
2022-08-31T18:12:17.715Z,22.83
2022-08-31T18:14:46.310Z,22.72
2022-08-31T18:17:14.866Z,22.64
2022-08-31T18:20:17.874Z,22.48
2022-08-31T18:22:48.868Z,22.54
2022-08-31T18:25:18.853Z,22.44
2022-08-31T18:27:46.518Z,22.39
2022-08-31T18:30:15.162Z,22.30
2022-08-31T18:32:47.285Z,22.19
2022-08-31T18:35:14.847Z,22.13
2022-08-31T18:37:41.975Z,22.09
2022-08-31T18:40:10.287Z,22.03
2022-08-31T18:42:37.484Z,21.97
2022-08-31T18:45:06.512Z,21.93
2022-08-31T18:47:34.845Z,21.87
2022-08-31T18:50:02.023Z,21.81
2022-08-31T18:52:29.104Z,21.74
2022-08-31T18:55:01.326Z,21.70
2022-08-31T18:57:49.157Z,21.67
2022-08-31T19:00:19.471Z,21.65
2022-08-31T19:02:49.244Z,21.66
2022-08-31T19:05:16.595Z,21.61
2022-08-31T19:07:43.949Z,21.59
2022-08-31T19:10:21.348Z,21.61
2022-08-31T20:08:35.259Z,21.09
2022-08-31T20:11:05.483Z,21.05
2022-08-31T20:13:32.815Z,21.12
2022-08-31T20:16:01.112Z,21.22
2022-08-31T20:18:28.340Z,21.13
2022-08-31T20:20:55.370Z,21.15
2022-08-31T20:23:23.179Z,21.27
2022-08-31T20:25:51.885Z,21.27
2022-08-31T20:28:19.930Z,21.24
2022-08-31T20:30:48.713Z,21.26
2022-08-31T20:33:16.051Z,21.17
2022-08-31T20:35:43.101Z,21.12
2022-08-31T20:38:10.282Z,21.06
2022-08-31T20:40:37.641Z,21.15
2022-08-31T20:43:06.115Z,21.09
2022-08-31T20:45:33.441Z,21.12
2022-08-31T20:48:00.468Z,21.09
2022-08-31T20:50:27.646Z,21.14
2022-08-31T20:52:54.543Z,21.14
2022-08-31T20:55:21.511Z,21.18
2022-08-31T20:57:48.621Z,21.19
2022-08-31T21:00:18.074Z,21.20
2022-08-31T21:02:45.989Z,21.11
2022-08-31T21:05:37.066Z,21.12
2022-08-31T21:08:00.079Z,21.08
2022-08-31T21:10:33.743Z,21.03
2022-08-31T21:13:11.166Z,20.97
2022-08-31T21:15:46.367Z,20.98
2022-08-31T21:18:15.818Z,20.97
2022-08-31T21:20:43.236Z,20.96
2022-08-31T21:23:10.847Z,20.90
2022-08-31T21:25:42.956Z,20.79
2022-08-31T21:28:10.334Z,20.72
2022-08-31T21:30:37.602Z,20.65
2022-08-31T21:33:06.203Z,20.48
2022-08-31T21:35:33.359Z,20.44
2022-08-31T21:38:00.210Z,20.38
2022-08-31T21:40:27.616Z,20.30
2022-08-31T21:42:56.919Z,20.23
2022-08-31T21:45:26.332Z,20.16
2022-08-31T21:47:54.493Z,20.21
2022-08-31T21:50:22.812Z,20.40
2022-08-31T21:52:58.281Z,20.50
2022-08-31T21:55:27.470Z,20.50
2022-08-31T21:57:54.895Z,20.70
2022-08-31T22:00:22.433Z,20.83
2022-08-31T22:02:49.450Z,20.89
2022-08-31T22:05:16.585Z,20.80
2022-08-31T22:07:44.981Z,20.77
2022-08-31T22:10:12.332Z,20.68
2022-08-31T22:12:39.594Z,20.66
2022-08-31T22:15:08.437Z,20.61
2022-08-31T22:18:04.748Z,20.52
2022-08-31T22:20:31.935Z,20.47
2022-08-31T22:23:00.469Z,20.41
2022-08-31T22:25:28.174Z,20.40
2022-08-31T22:27:55.601Z,20.36
2022-08-31T22:30:23.083Z,20.41
2022-08-31T22:32:51.139Z,20.45
2022-08-31T22:35:18.312Z,20.42
2022-08-31T22:37:45.313Z,20.38
2022-08-31T22:40:15.389Z,20.30
2022-08-31T22:42:42.530Z,20.25
2022-08-31T22:45:10.964Z,20.20
2022-08-31T22:47:49.301Z,20.06
2022-08-31T22:50:17.486Z,19.86
2022-08-31T22:52:44.493Z,19.79
2022-08-31T22:55:12.974Z,19.60
2022-08-31T22:57:39.802Z,19.52
2022-08-31T23:00:09.519Z,19.37
2022-08-31T23:02:39.185Z,19.30
2022-08-31T23:05:07.169Z,19.13
2022-08-31T23:07:34.187Z,19.11
2022-08-31T23:10:01.023Z,19.07
2022-08-31T23:12:29.648Z,19.04
2022-08-31T23:14:56.523Z,19.08
2022-08-31T23:17:23.944Z,19.03
2022-08-31T23:19:51.104Z,19.02
2022-08-31T23:22:18.008Z,18.93
2022-08-31T23:24:51.523Z,18.96
2022-08-31T23:27:21.216Z,18.90
2022-08-31T23:29:53.411Z,18.88
2022-08-31T23:32:23.413Z,18.98
2022-08-31T23:34:51.337Z,19.17
2022-08-31T23:37:19.001Z,19.28
2022-08-31T23:39:46.173Z,19.35
2022-08-31T23:42:16.297Z,19.39
2022-08-31T23:44:47.107Z,19.39
2022-08-31T23:47:18.962Z,19.41
2022-08-31T23:54:36.069Z,19.59
2022-08-31T23:57:04.481Z,19.64
2022-08-31T23:59:32.781Z,19.72
